sensor_id;sensor_type;location;lat;lon;timestamp;pressure;altitude;pressure_sealevel;temperature;humidity
73941;BME280;62294;48.554;10.202;2023-02-18T00:01:18;97345.50;;;9.73;100.00
73941;BME280;62294;48.554;10.202;2023-02-18T00:03:46;97334.41;;;9.70;100.00
73941;BME280;62294;48.554;10.202;2023-02-18T00:06:16;97343.38;;;9.69;100.00
73941;BME280;62294;48.554;10.202;2023-02-18T00:08:44;97334.59;;;9.68;100.00
73941;BME280;62294;48.554;10.202;2023-02-18T00:11:11;97340.44;;;9.64;100.00
73941;BME280;62294;48.554;10.202;2023-02-18T00:13:38;97337.97;;;9.77;100.00
73941;BME280;62294;48.554;10.202;2023-02-18T00:16:11;97325.72;;;9.61;100.00
73941;BME280;62294;48.554;10.202;2023-02-18T00:18:38;97314.75;;;9.64;100.00
73941;BME280;62294;48.554;10.202;2023-02-18T00:21:06;97314.38;;;9.67;100.00
73941;BME280;62294;48.554;10.202;2023-02-18T00:23:32;97319.94;;;9.72;100.00
73941;BME280;62294;48.554;10.202;2023-02-18T00:26:02;97314.63;;;9.72;100.00
73941;BME280;62294;48.554;10.202;2023-02-18T00:28:29;97309.59;;;9.77;100.00
73941;BME280;62294;48.554;10.202;2023-02-18T00:30:55;97296.25;;;9.85;100.00
73941;BME280;62294;48.554;10.202;2023-02-18T00:33:22;97270.41;;;9.79;100.00
73941;BME280;62294;48.554;10.202;2023-02-18T00:35:49;97262.25;;;9.95;100.00
73941;BME280;62294;48.554;10.202;2023-02-18T00:38:16;97248.53;;;9.77;100.00
73941;BME280;62294;48.554;10.202;2023-02-18T00:40:43;97244.25;;;9.76;100.00
73941;BME280;62294;48.554;10.202;2023-02-18T00:43:09;97228.06;;;9.71;100.00
73941;BME280;62294;48.554;10.202;2023-02-18T00:45:36;97230.31;;;9.74;100.00
73941;BME280;62294;48.554;10.202;2023-02-18T00:48:03;97213.13;;;9.70;100.00
73941;BME280;62294;48.554;10.202;2023-02-18T00:50:29;97214.78;;;9.71;100.00
73941;BME280;62294;48.554;10.202;2023-02-18T00:52:55;97205.97;;;9.71;100.00
73941;BME280;62294;48.554;10.202;2023-02-18T00:55:22;97214.50;;;9.66;100.00
73941;BME280;62294;48.554;10.202;2023-02-18T00:57:48;97208.38;;;9.66;100.00
73941;BME280;62294;48.554;10.202;2023-02-18T01:00:15;97210.94;;;9.59;100.00
73941;BME280;62294;48.554;10.202;2023-02-18T01:02:42;97204.88;;;9.65;100.00
73941;BME280;62294;48.554;10.202;2023-02-18T01:05:09;97204.16;;;9.71;100.00
73941;BME280;62294;48.554;10.202;2023-02-18T01:07:35;97201.97;;;9.60;100.00
73941;BME280;62294;48.554;10.202;2023-02-18T01:10:03;97180.81;;;9.67;100.00
73941;BME280;62294;48.554;10.202;2023-02-18T01:12:29;97175.88;;;9.64;100.00
73941;BME280;62294;48.554;10.202;2023-02-18T01:14:56;97187.31;;;9.64;100.00
73941;BME280;62294;48.554;10.202;2023-02-18T01:17:23;97174.97;;;9.57;100.00
73941;BME280;62294;48.554;10.202;2023-02-18T01:19:49;97189.72;;;9.59;100.00
73941;BME280;62294;48.554;10.202;2023-02-18T01:22:16;97182.38;;;9.61;100.00
73941;BME280;62294;48.554;10.202;2023-02-18T01:24:43;97185.44;;;9.58;100.00
73941;BME280;62294;48.554;10.202;2023-02-18T01:27:11;97189.16;;;9.49;100.00
73941;BME280;62294;48.554;10.202;2023-02-18T01:29:38;97181.94;;;9.58;100.00
73941;BME280;62294;48.554;10.202;2023-02-18T01:32:05;97189.16;;;9.49;100.00
73941;BME280;62294;48.554;10.202;2023-02-18T01:34:32;97202.69;;;9.54;100.00
73941;BME280;62294;48.554;10.202;2023-02-18T01:36:58;97208.91;;;9.61;100.00
73941;BME280;62294;48.554;10.202;2023-02-18T01:39:25;97206.09;;;9.63;100.00
73941;BME280;62294;48.554;10.202;2023-02-18T01:41:51;97210.31;;;9.57;100.00
73941;BME280;62294;48.554;10.202;2023-02-18T01:44:20;97198.84;;;9.57;100.00
73941;BME280;62294;48.554;10.202;2023-02-18T01:46:48;97194.75;;;9.54;100.00
73941;BME280;62294;48.554;10.202;2023-02-18T01:49:26;97191.81;;;9.49;100.00
73941;BME280;62294;48.554;10.202;2023-02-18T01:52:00;97202.81;;;9.46;100.00
73941;BME280;62294;48.554;10.202;2023-02-18T01:54:35;97194.94;;;9.38;100.00
73941;BME280;62294;48.554;10.202;2023-02-18T01:57:17;97190.72;;;9.29;100.00
73941;BME280;62294;48.554;10.202;2023-02-18T01:59:55;97193.56;;;9.27;100.00
73941;BME280;62294;48.554;10.202;2023-02-18T02:02:26;97203.47;;;9.19;100.00
73941;BME280;62294;48.554;10.202;2023-02-18T02:04:54;97191.47;;;9.23;100.00
73941;BME280;62294;48.554;10.202;2023-02-18T02:07:22;97200.78;;;9.04;100.00
73941;BME280;62294;48.554;10.202;2023-02-18T02:09:50;97209.63;;;8.97;100.00
73941;BME280;62294;48.554;10.202;2023-02-18T02:35:21;97329.13;;;8.73;100.00
73941;BME280;62294;48.554;10.202;2023-02-18T02:41:04;97338.44;;;8.69;100.00
73941;BME280;62294;48.554;10.202;2023-02-18T02:43:42;97334.31;;;8.66;100.00
73941;BME280;62294;48.554;10.202;2023-02-18T02:52:02;97341.00;;;8.54;100.00
73941;BME280;62294;48.554;10.202;2023-02-18T02:54:31;97343.84;;;8.52;100.00
73941;BME280;62294;48.554;10.202;2023-02-18T02:59:59;97340.06;;;8.47;100.00
73941;BME280;62294;48.554;10.202;2023-02-18T03:05:37;97363.59;;;8.42;100.00
73941;BME280;62294;48.554;10.202;2023-02-18T03:10:59;97372.69;;;8.47;100.00
73941;BME280;62294;48.554;10.202;2023-02-18T03:13:52;97379.50;;;8.42;100.00
73941;BME280;62294;48.554;10.202;2023-02-18T03:16:51;97377.03;;;8.40;100.00
73941;BME280;62294;48.554;10.202;2023-02-18T03:19:39;97379.50;;;8.42;100.00
73941;BME280;62294;48.554;10.202;2023-02-18T03:22:21;97375.22;;;8.41;100.00
73941;BME280;62294;48.554;10.202;2023-02-18T03:24:50;97390.25;;;8.48;100.00
73941;BME280;62294;48.554;10.202;2023-02-18T03:27:31;97382.31;;;8.48;100.00
73941;BME280;62294;48.554;10.202;2023-02-18T03:30:12;97380.31;;;8.42;100.00
73941;BME280;62294;48.554;10.202;2023-02-18T03:32:41;97379.50;;;8.42;100.00
73941;BME280;62294;48.554;10.202;2023-02-18T03:35:13;97378.00;;;8.47;100.00
73941;BME280;62294;48.554;10.202;2023-02-18T03:37:46;97376.31;;;8.46;100.00
73941;BME280;62294;48.554;10.202;2023-02-18T03:40:14;97383.09;;;8.49;100.00
73941;BME280;62294;48.554;10.202;2023-02-18T03:42:42;97373.22;;;8.43;100.00
73941;BME280;62294;48.554;10.202;2023-02-18T03:45:09;97360.16;;;8.41;100.00
73941;BME280;62294;48.554;10.202;2023-02-18T03:47:36;97354.31;;;8.46;100.00
73941;BME280;62294;48.554;10.202;2023-02-18T03:50:03;97345.56;;;8.37;100.00
73941;BME280;62294;48.554;10.202;2023-02-18T03:52:30;97346.28;;;8.31;100.00
73941;BME280;62294;48.554;10.202;2023-02-18T03:54:56;97352.75;;;8.29;100.00
73941;BME280;62294;48.554;10.202;2023-02-18T03:57:23;97351.56;;;8.31;100.00
73941;BME280;62294;48.554;10.202;2023-02-18T03:59:49;97344.78;;;8.29;100.00
73941;BME280;62294;48.554;10.202;2023-02-18T04:02:16;97348.63;;;8.26;100.00
73941;BME280;62294;48.554;10.202;2023-02-18T04:04:42;97353.41;;;8.23;100.00
73941;BME280;62294;48.554;10.202;2023-02-18T04:07:08;97351.97;;;8.12;100.00
73941;BME280;62294;48.554;10.202;2023-02-18T04:09:35;97373.81;;;8.06;100.00
73941;BME280;62294;48.554;10.202;2023-02-18T04:12:02;97385.44;;;8.05;100.00
73941;BME280;62294;48.554;10.202;2023-02-18T04:14:28;97406.09;;;8.10;100.00
73941;BME280;62294;48.554;10.202;2023-02-18T04:16:55;97422.78;;;8.10;100.00
73941;BME280;62294;48.554;10.202;2023-02-18T04:19:21;97423.75;;;8.17;100.00
73941;BME280;62294;48.554;10.202;2023-02-18T04:21:48;97436.34;;;8.23;100.00
73941;BME280;62294;48.554;10.202;2023-02-18T04:24:15;97434.03;;;8.20;100.00
73941;BME280;62294;48.554;10.202;2023-02-18T04:26:41;97429.38;;;8.22;100.00
73941;BME280;62294;48.554;10.202;2023-02-18T04:29:07;97431.56;;;8.19;100.00
73941;BME280;62294;48.554;10.202;2023-02-18T04:31:34;97433.38;;;8.18;100.00
73941;BME280;62294;48.554;10.202;2023-02-18T04:34:00;97440.34;;;8.27;100.00
73941;BME280;62294;48.554;10.202;2023-02-18T04:36:27;97443.47;;;8.23;100.00
73941;BME280;62294;48.554;10.202;2023-02-18T04:38:54;97431.56;;;8.27;100.00
73941;BME280;62294;48.554;10.202;2023-02-18T04:41:20;97431.19;;;8.22;100.00
73941;BME280;62294;48.554;10.202;2023-02-18T04:43:46;97433.19;;;8.20;100.00
73941;BME280;62294;48.554;10.202;2023-02-18T04:46:13;97411.19;;;8.19;100.00
73941;BME280;62294;48.554;10.202;2023-02-18T04:48:40;97412.84;;;8.20;100.00
73941;BME280;62294;48.554;10.202;2023-02-18T04:51:07;97423.44;;;8.20;100.00
73941;BME280;62294;48.554;10.202;2023-02-18T04:53:33;97409.53;;;8.18;100.00
73941;BME280;62294;48.554;10.202;2023-02-18T04:55:59;97418.47;;;8.17;100.00
73941;BME280;62294;48.554;10.202;2023-02-18T04:58:26;97420.78;;;8.20;100.00
73941;BME280;62294;48.554;10.202;2023-02-18T05:00:53;97418.13;;;8.20;100.00
73941;BME280;62294;48.554;10.202;2023-02-18T05:03:20;97418.31;;;8.19;100.00
73941;BME280;62294;48.554;10.202;2023-02-18T05:05:47;97403.09;;;8.21;100.00
73941;BME280;62294;48.554;10.202;2023-02-18T05:08:13;97402.91;;;8.22;100.00
73941;BME280;62294;48.554;10.202;2023-02-18T05:10:41;97394.94;;;8.22;100.00
73941;BME280;62294;48.554;10.202;2023-02-18T05:13:08;97399.59;;;8.28;100.00
73941;BME280;62294;48.554;10.202;2023-02-18T05:15:34;97396.94;;;8.28;100.00
73941;BME280;62294;48.554;10.202;2023-02-18T05:18:01;97378.72;;;8.25;100.00
73941;BME280;62294;48.554;10.202;2023-02-18T05:20:28;97372.13;;;8.21;100.00
73941;BME280;62294;48.554;10.202;2023-02-18T05:22:54;97376.75;;;8.19;100.00
73941;BME280;62294;48.554;10.202;2023-02-18T05:25:21;97378.78;;;8.09;100.00
73941;BME280;62294;48.554;10.202;2023-02-18T05:27:47;97384.78;;;7.95;100.00
73941;BME280;62294;48.554;10.202;2023-02-18T05:30:14;97395.66;;;8.08;100.00
73941;BME280;62294;48.554;10.202;2023-02-18T05:32:41;97392.53;;;8.05;100.00
73941;BME280;62294;48.554;10.202;2023-02-18T05:35:07;97387.44;;;7.95;100.00
73941;BME280;62294;48.554;10.202;2023-02-18T05:37:34;97394.22;;;7.89;100.00
73941;BME280;62294;48.554;10.202;2023-02-18T05:40:02;97401.88;;;7.84;100.00
73941;BME280;62294;48.554;10.202;2023-02-18T05:42:28;97391.75;;;7.88;100.00
73941;BME280;62294;48.554;10.202;2023-02-18T05:44:55;97402.34;;;7.88;100.00
73941;BME280;62294;48.554;10.202;2023-02-18T05:47:21;97415.72;;;7.95;100.00
73941;BME280;62294;48.554;10.202;2023-02-18T05:49:48;97409.50;;;7.79;100.00
73941;BME280;62294;48.554;10.202;2023-02-18T05:52:16;97424.72;;;7.69;100.00
73941;BME280;62294;48.554;10.202;2023-02-18T05:54:43;97437.09;;;7.69;100.00
73941;BME280;62294;48.554;10.202;2023-02-18T05:57:12;97463.91;;;7.74;100.00
73941;BME280;62294;48.554;10.202;2023-02-18T05:59:39;97466.53;;;7.74;100.00
73941;BME280;62294;48.554;10.202;2023-02-18T06:02:05;97473.00;;;7.79;100.00
73941;BME280;62294;48.554;10.202;2023-02-18T06:04:32;97482.59;;;7.72;100.00
73941;BME280;62294;48.554;10.202;2023-02-18T06:06:58;97488.38;;;7.68;100.00
73941;BME280;62294;48.554;10.202;2023-02-18T06:09:25;97500.63;;;7.61;100.00
73941;BME280;62294;48.554;10.202;2023-02-18T06:11:51;97516.81;;;7.58;100.00
73941;BME280;62294;48.554;10.202;2023-02-18T06:14:18;97536.03;;;7.68;100.00
73941;BME280;62294;48.554;10.202;2023-02-18T06:16:45;97544.63;;;7.62;100.00
73941;BME280;62294;48.554;10.202;2023-02-18T06:19:11;97558.00;;;7.60;100.00
73941;BME280;62294;48.554;10.202;2023-02-18T06:21:38;97567.75;;;7.60;100.00
73941;BME280;62294;48.554;10.202;2023-02-18T06:24:05;97569.09;;;7.64;100.00
73941;BME280;62294;48.554;10.202;2023-02-18T06:26:31;97587.63;;;7.64;100.00
73941;BME280;62294;48.554;10.202;2023-02-18T06:28:58;97586.78;;;7.71;100.00
73941;BME280;62294;48.554;10.202;2023-02-18T06:31:24;97592.56;;;7.59;100.00
73941;BME280;62294;48.554;10.202;2023-02-18T06:33:51;97614.91;;;7.72;100.00
73941;BME280;62294;48.554;10.202;2023-02-18T06:36:18;97620.88;;;7.66;100.00
73941;BME280;62294;48.554;10.202;2023-02-18T06:38:45;97622.50;;;7.67;100.00
73941;BME280;62294;48.554;10.202;2023-02-18T06:41:13;97626.00;;;7.68;100.00
73941;BME280;62294;48.554;10.202;2023-02-18T06:43:39;97617.72;;;7.63;100.00
73941;BME280;62294;48.554;10.202;2023-02-18T06:46:06;97633.41;;;7.64;100.00
73941;BME280;62294;48.554;10.202;2023-02-18T06:48:33;97626.78;;;7.60;100.00
73941;BME280;62294;48.554;10.202;2023-02-18T06:51:00;97640.03;;;7.60;100.00
73941;BME280;62294;48.554;10.202;2023-02-18T06:53:26;97650.97;;;7.65;100.00
73941;BME280;62294;48.554;10.202;2023-02-18T06:55:53;97658.41;;;7.70;100.00
73941;BME280;62294;48.554;10.202;2023-02-18T06:58:19;97665.03;;;7.66;100.00
73941;BME280;62294;48.554;10.202;2023-02-18T07:00:46;97677.78;;;7.70;100.00
73941;BME280;62294;48.554;10.202;2023-02-18T07:03:13;97682.25;;;7.78;100.00
73941;BME280;62294;48.554;10.202;2023-02-18T07:05:41;97702.78;;;7.84;100.00
73941;BME280;62294;48.554;10.202;2023-02-18T07:08:07;97701.47;;;7.88;100.00
73941;BME280;62294;48.554;10.202;2023-02-18T07:10:34;97711.88;;;7.89;100.00
73941;BME280;62294;48.554;10.202;2023-02-18T07:13:00;97718.84;;;7.91;100.00
73941;BME280;62294;48.554;10.202;2023-02-18T07:15:27;97717.38;;;7.96;100.00
73941;BME280;62294;48.554;10.202;2023-02-18T07:17:54;97731.78;;;8.02;100.00
73941;BME280;62294;48.554;10.202;2023-02-18T07:20:21;97741.88;;;8.06;100.00
73941;BME280;62294;48.554;10.202;2023-02-18T07:22:49;97740.56;;;8.10;100.00
73941;BME280;62294;48.554;10.202;2023-02-18T07:25:15;97740.06;;;8.15;100.00
73941;BME280;62294;48.554;10.202;2023-02-18T07:27:41;97738.59;;;8.20;100.00
73941;BME280;62294;48.554;10.202;2023-02-18T07:30:09;97731.50;;;8.21;100.00
73941;BME280;62294;48.554;10.202;2023-02-18T07:32:35;97715.09;;;8.17;100.00
73941;BME280;62294;48.554;10.202;2023-02-18T07:35:04;97719.75;;;8.23;100.00
73941;BME280;62294;48.554;10.202;2023-02-18T07:37:31;97735.00;;;8.29;100.00
73941;BME280;62294;48.554;10.202;2023-02-18T07:39:58;97714.16;;;8.34;100.00
73941;BME280;62294;48.554;10.202;2023-02-18T07:42:24;97714.81;;;8.44;100.00
73941;BME280;62294;48.554;10.202;2023-02-18T07:44:51;97729.06;;;8.51;100.00
73941;BME280;62294;48.554;10.202;2023-02-18T07:47:17;97713.16;;;8.51;100.00
73941;BME280;62294;48.554;10.202;2023-02-18T07:49:45;97698.41;;;8.49;100.00
73941;BME280;62294;48.554;10.202;2023-02-18T07:52:13;97689.66;;;8.48;100.00
73941;BME280;62294;48.554;10.202;2023-02-18T07:54:40;97689.31;;;8.51;100.00
73941;BME280;62294;48.554;10.202;2023-02-18T07:57:06;97680.06;;;8.55;100.00
73941;BME280;62294;48.554;10.202;2023-02-18T07:59:33;97663.47;;;8.62;100.00
73941;BME280;62294;48.554;10.202;2023-02-18T08:01:59;97673.41;;;8.76;100.00
73941;BME280;62294;48.554;10.202;2023-02-18T08:04:26;97664.75;;;8.90;100.00
73941;BME280;62294;48.554;10.202;2023-02-18T08:06:53;97643.22;;;8.85;100.00
73941;BME280;62294;48.554;10.202;2023-02-18T08:09:19;97639.91;;;8.83;100.00
73941;BME280;62294;48.554;10.202;2023-02-18T08:11:46;97641.88;;;8.89;100.00
73941;BME280;62294;48.554;10.202;2023-02-18T08:14:12;97633.22;;;9.03;100.00
73941;BME280;62294;48.554;10.202;2023-02-18T08:16:39;97612.66;;;8.97;100.00
73941;BME280;62294;48.554;10.202;2023-02-18T08:19:06;97604.56;;;8.90;100.00
73941;BME280;62294;48.554;10.202;2023-02-18T08:21:33;97599.41;;;8.97;100.00
73941;BME280;62294;48.554;10.202;2023-02-18T08:23:59;97592.94;;;8.99;100.00
73941;BME280;62294;48.554;10.202;2023-02-18T08:26:26;97583.16;;;9.08;100.00
73941;BME280;62294;48.554;10.202;2023-02-18T08:28:53;97577.47;;;9.19;100.00
73941;BME280;62294;48.554;10.202;2023-02-18T08:31:25;97558.91;;;9.19;100.00
73941;BME280;62294;48.554;10.202;2023-02-18T08:33:53;97546.94;;;9.23;100.00
73941;BME280;62294;48.554;10.202;2023-02-18T08:36:21;97536.97;;;9.25;100.00
73941;BME280;62294;48.554;10.202;2023-02-18T08:38:48;97527.06;;;9.19;100.00
73941;BME280;62294;48.554;10.202;2023-02-18T08:41:14;97521.09;;;9.17;100.00
73941;BME280;62294;48.554;10.202;2023-02-18T08:43:41;97508.19;;;9.14;100.00
73941;BME280;62294;48.554;10.202;2023-02-18T08:46:08;97513.31;;;9.15;100.00
73941;BME280;62294;48.554;10.202;2023-02-18T08:48:41;97503.84;;;9.21;100.00
73941;BME280;62294;48.554;10.202;2023-02-18T08:51:17;97486.22;;;9.28;100.00
73941;BME280;62294;48.554;10.202;2023-02-18T08:53:45;97484.03;;;9.32;100.00
73941;BME280;62294;48.554;10.202;2023-02-18T08:56:13;97467.88;;;9.41;100.00
73941;BME280;62294;48.554;10.202;2023-02-18T08:58:40;97464.81;;;9.52;100.00
73941;BME280;62294;48.554;10.202;2023-02-18T09:01:10;97446.53;;;9.57;100.00
73941;BME280;62294;48.554;10.202;2023-02-18T09:03:37;97437.84;;;9.63;100.00
73941;BME280;62294;48.554;10.202;2023-02-18T09:06:04;97426.22;;;9.64;100.00
73941;BME280;62294;48.554;10.202;2023-02-18T09:08:31;97409.41;;;9.86;100.00
73941;BME280;62294;48.554;10.202;2023-02-18T09:10:59;97396.78;;;9.88;100.00
73941;BME280;62294;48.554;10.202;2023-02-18T09:13:26;97389.44;;;9.90;100.00
73941;BME280;62294;48.554;10.202;2023-02-18T09:16:05;97379.28;;;9.94;100.00
73941;BME280;62294;48.554;10.202;2023-02-18T09:18:32;97371.50;;;10.07;100.00
73941;BME280;62294;48.554;10.202;2023-02-18T09:21:02;97341.00;;;10.03;100.00
73941;BME280;62294;48.554;10.202;2023-02-18T09:23:29;97331.47;;;10.09;100.00
73941;BME280;62294;48.554;10.202;2023-02-18T09:25:58;97313.25;;;10.06;100.00
73941;BME280;62294;48.554;10.202;2023-02-18T09:28:25;97306.28;;;10.05;100.00
73941;BME280;62294;48.554;10.202;2023-02-18T09:30:52;97300.53;;;10.01;100.00
73941;BME280;62294;48.554;10.202;2023-02-18T09:33:18;97300.72;;;10.14;100.00
73941;BME280;62294;48.554;10.202;2023-02-18T09:35:45;97291.44;;;10.25;100.00
73941;BME280;62294;48.554;10.202;2023-02-18T09:38:15;97269.94;;;10.20;100.00
73941;BME280;62294;48.554;10.202;2023-02-18T09:40:48;97260.84;;;10.29;100.00
73941;BME280;62294;48.554;10.202;2023-02-18T09:43:29;97251.84;;;10.30;100.00
73941;BME280;62294;48.554;10.202;2023-02-18T09:45:57;97256.03;;;10.39;100.00
73941;BME280;62294;48.554;10.202;2023-02-18T09:48:31;97237.56;;;10.31;100.00
73941;BME280;62294;48.554;10.202;2023-02-18T09:50:58;97226.81;;;10.39;100.00
73941;BME280;62294;48.554;10.202;2023-02-18T09:53:26;97204.25;;;10.49;100.00
73941;BME280;62294;48.554;10.202;2023-02-18T09:55:54;97196.44;;;10.48;100.00
73941;BME280;62294;48.554;10.202;2023-02-18T09:58:30;97175.44;;;10.53;100.00
73941;BME280;62294;48.554;10.202;2023-02-18T10:01:12;97154.41;;;10.58;100.00
73941;BME280;62294;48.554;10.202;2023-02-18T10:03:41;97144.09;;;10.69;100.00
73941;BME280;62294;48.554;10.202;2023-02-18T10:06:15;97125.13;;;10.79;100.00
73941;BME280;62294;48.554;10.202;2023-02-18T10:08:45;97106.53;;;10.79;100.00
73941;BME280;62294;48.554;10.202;2023-02-18T10:11:26;97081.22;;;10.90;100.00
73941;BME280;62294;48.554;10.202;2023-02-18T10:13:55;97073.66;;;10.93;100.00
73941;BME280;62294;48.554;10.202;2023-02-18T10:16:23;97057.38;;;11.09;100.00
73941;BME280;62294;48.554;10.202;2023-02-18T10:18:55;97031.38;;;11.11;100.00
73941;BME280;62294;48.554;10.202;2023-02-18T10:21:25;97014.44;;;11.19;100.00
73941;BME280;62294;48.554;10.202;2023-02-18T10:24:03;97010.16;;;11.24;100.00
73941;BME280;62294;48.554;10.202;2023-02-18T10:26:33;96993.59;;;11.29;100.00
73941;BME280;62294;48.554;10.202;2023-02-18T10:29:01;96987.69;;;11.40;100.00
73941;BME280;62294;48.554;10.202;2023-02-18T10:31:36;96981.75;;;11.38;100.00
73941;BME280;62294;48.554;10.202;2023-02-18T10:36:55;96965.34;;;11.41;100.00
73941;BME280;62294;48.554;10.202;2023-02-18T10:39:33;96956.59;;;11.47;100.00
73941;BME280;62294;48.554;10.202;2023-02-18T10:50:04;96946.53;;;11.36;100.00
73941;BME280;62294;48.554;10.202;2023-02-18T10:52:40;96944.03;;;11.28;100.00
73941;BME280;62294;48.554;10.202;2023-02-18T10:55:11;96938.72;;;11.34;100.00
73941;BME280;62294;48.554;10.202;2023-02-18T10:57:48;96944.06;;;11.41;100.00
73941;BME280;62294;48.554;10.202;2023-02-18T11:00:21;96944.66;;;11.36;100.00
73941;BME280;62294;48.554;10.202;2023-02-18T11:03:11;96939.16;;;11.45;100.00
73941;BME280;62294;48.554;10.202;2023-02-18T11:05:39;96930.22;;;11.72;100.00
73941;BME280;62294;48.554;10.202;2023-02-18T11:08:27;96910.56;;;11.86;100.00
73941;BME280;62294;48.554;10.202;2023-02-18T11:10:55;96904.81;;;11.95;100.00
73941;BME280;62294;48.554;10.202;2023-02-18T11:13:27;96893.34;;;11.69;100.00
73941;BME280;62294;48.554;10.202;2023-02-18T11:16:05;96894.78;;;11.91;100.00
73941;BME280;62294;48.554;10.202;2023-02-18T11:18:39;96878.78;;;11.91;100.00
73941;BME280;62294;48.554;10.202;2023-02-18T11:21:21;96872.03;;;11.75;100.00
73941;BME280;62294;48.554;10.202;2023-02-18T11:23:51;96869.13;;;11.57;100.00
73941;BME280;62294;48.554;10.202;2023-02-18T11:26:37;96869.56;;;11.74;100.00
73941;BME280;62294;48.554;10.202;2023-02-18T11:29:11;96857.44;;;12.04;100.00
73941;BME280;62294;48.554;10.202;2023-02-18T11:31:46;96832.25;;;12.00;100.00
73941;BME280;62294;48.554;10.202;2023-02-18T11:34:18;96837.44;;;12.39;100.00
73941;BME280;62294;48.554;10.202;2023-02-18T11:36:47;96819.91;;;12.63;100.00
73941;BME280;62294;48.554;10.202;2023-02-18T11:39:24;96797.66;;;12.75;100.00
73941;BME280;62294;48.554;10.202;2023-02-18T11:41:55;96783.63;;;12.55;100.00
73941;BME280;62294;48.554;10.202;2023-02-18T11:47:05;96767.53;;;12.75;100.00
73941;BME280;62294;48.554;10.202;2023-02-18T11:50:00;96754.91;;;12.57;100.00
73941;BME280;62294;48.554;10.202;2023-02-18T11:52:33;96749.84;;;12.80;100.00
73941;BME280;62294;48.554;10.202;2023-02-18T11:55:00;96758.88;;;12.79;100.00
73941;BME280;62294;48.554;10.202;2023-02-18T11:57:28;96750.06;;;12.41;100.00
73941;BME280;62294;48.554;10.202;2023-02-18T11:59:56;96737.19;;;12.69;100.00
73941;BME280;62294;48.554;10.202;2023-02-18T12:05:03;96726.94;;;12.73;100.00
73941;BME280;62294;48.554;10.202;2023-02-18T12:10:57;96713.69;;;12.84;100.00
73941;BME280;62294;48.554;10.202;2023-02-18T12:13:37;96702.03;;;12.54;100.00
73941;BME280;62294;48.554;10.202;2023-02-18T12:21:55;96694.81;;;12.86;100.00
73941;BME280;62294;48.554;10.202;2023-02-18T12:24:43;96708.97;;;12.87;100.00
73941;BME280;62294;48.554;10.202;2023-02-18T12:27:30;96697.06;;;12.89;100.00
73941;BME280;62294;48.554;10.202;2023-02-18T12:33:22;96696.59;;;12.92;100.00
73941;BME280;62294;48.554;10.202;2023-02-18T12:46:57;96692.38;;;13.70;100.00
73941;BME280;62294;48.554;10.202;2023-02-18T13:00:37;96694.00;;;13.10;100.00
73941;BME280;62294;48.554;10.202;2023-02-18T13:14:04;96675.53;;;13.33;100.00
73941;BME280;62294;48.554;10.202;2023-02-18T13:16:37;96670.84;;;13.29;100.00
73941;BME280;62294;48.554;10.202;2023-02-18T13:19:24;96668.31;;;13.16;100.00
73941;BME280;62294;48.554;10.202;2023-02-18T13:21:55;96658.69;;;13.33;100.00
73941;BME280;62294;48.554;10.202;2023-02-18T13:24:30;96644.06;;;13.35;100.00
73941;BME280;62294;48.554;10.202;2023-02-18T13:27:30;96665.38;;;13.42;100.00
73941;BME280;62294;48.554;10.202;2023-02-18T13:30:22;96633.31;;;13.60;100.00
73941;BME280;62294;48.554;10.202;2023-02-18T13:35:48;96653.84;;;13.96;100.00
73941;BME280;62294;48.554;10.202;2023-02-18T13:40:59;96658.69;;;13.69;100.00
73941;BME280;62294;48.554;10.202;2023-02-18T13:46:15;96664.47;;;13.30;100.00
73941;BME280;62294;48.554;10.202;2023-02-18T13:48:52;96652.56;;;13.08;100.00
73941;BME280;62294;48.554;10.202;2023-02-18T13:51:29;96655.66;;;13.05;100.00
73941;BME280;62294;48.554;10.202;2023-02-18T13:54:13;96656.38;;;13.91;100.00
73941;BME280;62294;48.554;10.202;2023-02-18T13:56:50;96663.88;;;13.03;100.00
73941;BME280;62294;48.554;10.202;2023-02-18T13:59:21;96669.53;;;13.56;100.00
73941;BME280;62294;48.554;10.202;2023-02-18T14:01:50;96652.31;;;13.16;100.00
73941;BME280;62294;48.554;10.202;2023-02-18T14:09:42;96667.38;;;12.79;100.00
73941;BME280;62294;48.554;10.202;2023-02-18T14:15:00;96665.13;;;12.51;100.00
73941;BME280;62294;48.554;10.202;2023-02-18T14:17:29;96662.56;;;12.38;100.00
73941;BME280;62294;48.554;10.202;2023-02-18T14:22:45;96663.75;;;12.67;100.00
73941;BME280;62294;48.554;10.202;2023-02-18T14:27:40;96657.81;;;12.09;100.00
73941;BME280;62294;48.554;10.202;2023-02-18T14:30:17;96651.75;;;11.95;100.00
73941;BME280;62294;48.554;10.202;2023-02-18T14:32:45;96653.63;;;11.88;100.00
73941;BME280;62294;48.554;10.202;2023-02-18T14:46:40;96650.19;;;11.62;100.00
73941;BME280;62294;48.554;10.202;2023-02-18T14:49:20;96670.88;;;11.60;100.00
73941;BME280;62294;48.554;10.202;2023-02-18T14:51:51;96656.34;;;11.62;100.00
73941;BME280;62294;48.554;10.202;2023-02-18T14:54:19;96646.75;;;11.61;100.00
73941;BME280;62294;48.554;10.202;2023-02-18T14:56:57;96661.25;;;11.72;100.00
73941;BME280;62294;48.554;10.202;2023-02-18T14:59:27;96657.16;;;11.69;100.00
73941;BME280;62294;48.554;10.202;2023-02-18T15:01:56;96644.50;;;11.52;100.00
73941;BME280;62294;48.554;10.202;2023-02-18T15:04:24;96654.56;;;11.50;100.00
73941;BME280;62294;48.554;10.202;2023-02-18T15:07:02;96660.69;;;11.50;100.00
73941;BME280;62294;48.554;10.202;2023-02-18T15:09:30;96664.38;;;11.49;100.00
73941;BME280;62294;48.554;10.202;2023-02-18T15:12:02;96667.00;;;11.69;100.00
73941;BME280;62294;48.554;10.202;2023-02-18T15:14:33;96650.19;;;11.68;100.00
73941;BME280;62294;48.554;10.202;2023-02-18T15:17:02;96676.41;;;11.71;100.00